Time;durP1;ratioP1;P1;durP2;ratioP2;P2;SDS_P1;SDS_P2;PMS_P1;PMS_P2;Temp;Humidity;BMP_temperature;BMP_pressure;BME280_temperature;BME280_humidity;BME280_pressure;Samples;Min_cycle;Max_cycle;Signal;HPM_P1;HPM_P2
2024/01/01 00:00:08;;;;;;;4.43;4.00;;;;;;;11.91;58.39;99239.94;4435805;32;32519;-80
2024/01/01 00:02:41;;;;;;;7.32;4.95;;;;;;;12.12;57.90;99229.06;4461163;32;33778;-80
2024/01/01 00:05:11;;;;;;;4.05;3.72;;;;;;;12.09;57.78;99237.19;4436432;32;31818;-80
2024/01/01 00:07:38;;;;;;;3.80;3.40;;;;;;;12.21;57.08;99239.13;4448641;32;33955;-80
2024/01/01 00:10:09;;;;;;;8.20;3.30;;;;;;;11.62;59.51;99241.59;4450705;32;33579;-80
2024/01/01 00:12:38;;;;;;;4.80;4.37;;;;;;;11.88;58.15;99234.00;4431864;32;32357;-80
2024/01/01 00:15:06;;;;;;;3.83;3.50;;;;;;;11.51;59.21;99236.06;4435741;32;34485;-80
2024/01/01 00:17:34;;;;;;;3.15;2.58;;;;;;;11.65;59.16;99240.56;4435047;32;31968;-80
2024/01/01 00:20:02;;;;;;;4.32;2.03;;;;;;;11.61;59.09;99236.41;4459656;32;33132;-80
2024/01/01 00:22:32;;;;;;;2.80;2.55;;;;;;;11.31;60.32;99234.53;4434034;32;32616;-80
2024/01/01 00:25:09;;;;;;;2.60;2.40;;;;;;;11.64;59.16;99231.78;4447688;32;33232;-80
2024/01/01 00:27:41;;;;;;;6.60;4.50;;;;;;;11.54;59.59;99241.19;4457658;32;33071;-81
2024/01/01 00:30:11;;;;;;;8.63;4.57;;;;;;;11.36;60.14;99229.84;4432318;32;32655;-80
2024/01/01 00:32:40;;;;;;;5.47;4.70;;;;;;;11.67;58.97;99230.75;4461676;32;33299;-80
2024/01/01 00:35:08;;;;;;;4.55;3.58;;;;;;;11.27;60.31;99230.38;4459007;32;33816;-80
2024/01/01 00:37:36;;;;;;;3.53;3.05;;;;;;;11.32;60.24;99228.31;4460855;32;33234;-80
2024/01/01 00:40:04;;;;;;;6.10;3.08;;;;;;;11.50;59.55;99219.34;4437239;32;32913;-80
2024/01/01 00:42:34;;;;;;;2.15;1.95;;;;;;;11.45;59.94;99221.41;4458651;32;33271;-80
2024/01/01 00:45:03;;;;;;;4.53;3.50;;;;;;;11.42;59.78;99218.94;4460831;32;34076;-81
2024/01/01 00:47:32;;;;;;;2.10;1.90;;;;;;;11.67;59.30;99212.25;4461452;32;33219;-80
2024/01/01 00:50:03;;;;;;;2.33;2.22;;;;;;;11.43;59.94;99211.84;4457713;32;31919;-80
2024/01/01 00:52:36;;;;;;;1.30;1.20;;;;;;;11.43;59.65;99219.78;4421832;32;32941;-80
2024/01/01 00:55:05;;;;;;;3.28;2.30;;;;;;;11.55;59.15;99232.31;4458677;32;32134;-80
2024/01/01 00:57:32;;;;;;;2.75;2.17;;;;;;;11.23;60.43;99231.47;4446951;32;33313;-80
2024/01/01 01:00:00;;;;;;;3.00;1.48;;;;;;;11.52;59.59;99222.75;4433928;32;33173;-80
2024/01/01 01:02:30;;;;;;;4.55;2.50;;;;;;;11.52;59.87;99224.53;4448166;32;35563;-80
2024/01/01 01:04:58;;;;;;;8.35;1.37;;;;;;;11.64;59.26;99220.38;4456885;32;34393;-80
2024/01/01 01:07:33;;;;;;;1.50;1.35;;;;;;;10.84;61.80;99213.38;4444231;32;33070;-80
2024/01/01 01:10:04;;;;;;;1.50;1.42;;;;;;;11.21;61.13;99209.56;4458497;32;33089;-80
2024/01/01 01:12:34;;;;;;;9.95;2.28;;;;;;;11.54;60.22;99212.09;4447845;32;32493;-80
2024/01/01 01:15:02;;;;;;;1.15;1.10;;;;;;;11.63;nan;99203.66;4445451;32;32620;-81
2024/01/01 01:17:30;;;;;;;2.22;2.03;;;;;;;11.78;59.53;99194.81;4457113;32;33322;-80
2024/01/01 01:19:58;;;;;;;2.28;2.08;;;;;;;11.60;60.25;99193.25;4459366;32;33856;-81
2024/01/01 01:22:27;;;;;;;0.80;0.77;;;;;;;11.46;60.83;99194.03;4448232;32;33395;-80
2024/01/01 01:24:55;;;;;;;3.17;2.12;;;;;;;11.25;61.11;99200.50;4459396;32;33250;-81
2024/01/01 01:27:22;;;;;;;1.85;1.73;;;;;;;11.59;60.63;99209.19;4443699;32;35216;-81
2024/01/01 01:29:50;;;;;;;2.17;1.17;;;;;;;11.32;62.07;99201.88;4432903;32;33906;-82
2024/01/01 01:32:19;;;;;;;4.00;3.70;;;;;;;11.29;61.73;99199.41;4459714;32;33700;-82
2024/01/01 01:34:47;;;;;;;1.27;1.27;;;;;;;11.49;61.37;99196.50;4462374;32;34649;-82
2024/01/01 01:37:15;;;;;;;4.43;1.83;;;;;;;11.59;61.47;99191.53;4443156;32;32975;-82
2024/01/01 01:39:43;;;;;;;1.92;1.83;;;;;;;11.79;60.86;99185.09;4448747;32;33227;-81
2024/01/01 01:42:11;;;;;;;9.38;3.33;;;;;;;11.58;61.92;99184.53;4452598;32;34436;-81
2024/01/01 01:44:39;;;;;;;1.75;1.30;;;;;;;11.50;62.07;99187.63;4434655;32;32942;-81
2024/01/01 01:47:07;;;;;;;1.48;1.37;;;;;;;11.34;62.84;99180.66;4460891;32;32715;-81
2024/01/01 01:49:35;;;;;;;2.37;1.98;;;;;;;11.16;62.80;99180.75;4436133;32;32242;-81
2024/01/01 01:52:03;;;;;;;3.03;1.92;;;;;;;11.23;63.09;99179.47;4433342;32;34496;-80
2024/01/01 01:54:33;;;;;;;1.62;1.52;;;;;;;11.21;63.21;99172.56;4447184;32;33356;-80
2024/01/01 01:57:02;;;;;;;1.65;1.55;;;;;;;11.10;64.00;99167.03;4448758;32;33546;-80
2024/01/01 01:59:30;;;;;;;2.15;2.05;;;;;;;10.96;63.53;99171.28;4458355;32;33395;-80
2024/01/01 02:01:58;;;;;;;4.75;0.80;;;;;;;11.13;62.74;99169.50;4459429;32;33115;-81
2024/01/01 02:04:26;;;;;;;2.12;1.92;;;;;;;10.89;63.55;99169.06;4449944;32;32739;-81
2024/01/01 02:06:54;;;;;;;2.83;2.62;;;;;;;10.69;63.30;99159.59;4461631;32;33363;-80
2024/01/01 02:09:21;;;;;;;2.72;1.12;;;;;;;10.82;63.72;99152.69;4444689;32;33104;-81
2024/01/01 02:11:50;;;;;;;1.85;0.82;;;;;;;10.99;63.15;99164.97;4446267;32;33948;-81
2024/01/01 02:14:19;;;;;;;1.52;1.33;;;;;;;10.94;63.08;99152.03;4454668;32;34807;-81
2024/01/01 02:16:48;;;;;;;0.77;0.77;;;;;;;11.11;62.55;99158.16;4459542;32;33739;-81
2024/01/01 02:19:19;;;;;;;1.48;0.95;;;;;;;11.39;61.51;99147.72;4438544;32;34015;-80
2024/01/01 02:21:51;;;;;;;1.97;1.83;;;;;;;11.19;62.22;99146.22;4460810;32;33655;-80
2024/01/01 02:24:20;;;;;;;0.93;0.88;;;;;;;10.91;62.84;99146.91;4433970;32;33247;-81
2024/01/01 02:26:49;;;;;;;1.37;0.85;;;;;;;11.22;61.93;99142.56;4457112;32;31413;-80
2024/01/01 02:29:17;;;;;;;1.62;1.52;;;;;;;11.49;61.28;99133.06;4456828;32;32062;-80
2024/01/01 02:31:46;;;;;;;0.75;0.73;;;;;;;11.77;60.33;99120.84;4432306;32;33265;-80
2024/01/01 02:34:16;;;;;;;0.52;0.52;;;;;;;11.88;60.22;99118.44;4446411;32;33483;-80
2024/01/01 02:36:44;;;;;;;1.00;0.98;;;;;;;11.58;60.89;99110.50;4446233;32;33796;-80
2024/01/01 02:39:12;;;;;;;0.95;0.93;;;;;;;11.34;62.25;99118.06;4450131;32;34982;-80
2024/01/01 02:41:40;;;;;;;1.95;1.85;;;;;;;11.31;62.53;99106.84;4433769;32;34750;-80
2024/01/01 02:44:08;;;;;;;2.62;2.33;;;;;;;11.28;62.77;99119.25;4456388;32;34500;-80
2024/01/01 02:46:35;;;;;;;2.62;2.42;;;;;;;11.68;61.44;99108.16;4459163;32;33429;-80
2024/01/01 02:49:04;;;;;;;1.08;1.08;;;;;;;11.74;60.72;99105.16;4445234;32;33572;-80
2024/01/01 02:51:31;;;;;;;4.37;3.60;;;;;;;11.51;61.30;99104.72;4447321;32;33491;-80
2024/01/01 02:54:00;;;;;;;2.62;2.40;;;;;;;11.16;63.07;99106.78;4458885;32;33320;-80
2024/01/01 02:56:29;;;;;;;1.80;1.70;;;;;;;11.28;62.48;99102.56;4461647;32;33771;-80
2024/01/01 02:58:56;;;;;;;5.82;4.10;;;;;;;11.46;61.88;99090.06;4448573;32;32067;-80
2024/01/01 03:01:24;;;;;;;4.57;2.97;;;;;;;11.28;61.66;99098.12;4449564;32;34714;-80
2024/01/01 03:03:52;;;;;;;2.65;2.45;;;;;;;11.21;62.60;99086.22;4444192;32;35017;-80
2024/01/01 03:06:20;;;;;;;5.87;4.25;;;;;;;11.31;62.26;99090.97;4454261;32;32477;-80
2024/01/01 03:08:48;;;;;;;3.87;3.55;;;;;;;11.60;61.53;99083.97;4449897;32;33902;-80
2024/01/01 03:11:16;;;;;;;3.08;2.87;;;;;;;11.07;63.06;99098.53;4444722;32;33106;-80
2024/01/01 03:13:44;;;;;;;4.10;3.80;;;;;;;11.01;63.14;99100.56;4433915;32;32018;-80
2024/01/01 03:16:13;;;;;;;4.62;3.03;;;;;;;10.78;64.11;99111.56;4444460;32;32199;-80
2024/01/01 03:18:41;;;;;;;5.28;4.40;;;;;;;10.72;64.05;99118.03;4434954;32;33575;-80
2024/01/01 03:21:09;;;;;;;1.30;1.20;;;;;;;10.53;64.97;99117.31;4458868;32;33504;-80
2024/01/01 03:23:36;;;;;;;4.87;4.43;;;;;;;10.38;65.17;99126.09;4458846;32;33621;-80
2024/01/01 03:26:04;;;;;;;1.98;1.87;;;;;;;10.43;65.79;99145.16;4447581;32;32031;-80
2024/01/01 03:28:32;;;;;;;2.72;1.30;;;;;;;10.59;65.38;99145.22;4463010;32;34840;-81
2024/01/01 03:31:00;;;;;;;8.57;2.15;;;;;;;10.66;64.64;99141.28;4446222;32;33544;-80
2024/01/01 03:33:33;;;;;;;0.85;0.80;;;;;;;10.79;64.42;99138.84;4460739;32;33701;-80
2024/01/01 03:36:00;;;;;;;1.42;1.35;;;;;;;10.64;64.76;99136.09;4447921;32;31541;-80
2024/01/01 03:38:28;;;;;;;2.15;1.98;;;;;;;10.55;64.78;99133.94;4449465;32;34023;-82
2024/01/01 03:40:56;;;;;;;4.78;1.95;;;;;;;10.70;65.06;99137.53;4445851;32;34026;-81
2024/01/01 03:43:24;;;;;;;1.42;1.33;;;;;;;10.57;64.80;99126.78;4446099;32;32829;-80
2024/01/01 03:45:52;;;;;;;0.68;0.68;;;;;;;10.55;65.74;99127.81;4450117;32;31481;-81
2024/01/01 03:48:20;;;;;;;6.37;1.08;;;;;;;10.44;65.77;99128.38;4433648;32;32074;-81
2024/01/01 03:50:47;;;;;;;1.10;1.02;;;;;;;10.52;65.87;99118.28;4446194;32;33949;-81
2024/01/01 03:53:15;;;;;;;0.57;0.57;;;;;;;10.60;65.62;99125.78;4450350;32;34477;-81
2024/01/01 03:55:43;;;;;;;0.65;0.65;;;;;;;10.32;65.94;99124.63;4433871;32;32100;-80
2024/01/01 03:58:11;;;;;;;0.43;0.43;;;;;;;10.37;65.80;99116.47;4462888;32;34553;-80
2024/01/01 04:00:39;;;;;;;6.80;0.52;;;;;;;10.43;65.62;99102.94;4448229;32;34279;-80
2024/01/01 04:03:07;;;;;;;1.85;1.73;;;;;;;10.45;65.28;99088.72;4463519;32;33929;-81
2024/01/01 04:05:34;;;;;;;2.62;2.15;;;;;;;10.33;65.24;99094.66;4460529;32;33402;-81
2024/01/01 04:08:02;;;;;;;1.05;0.98;;;;;;;10.12;65.43;99090.50;4432691;32;33304;-80
2024/01/01 04:10:31;;;;;;;1.10;1.00;;;;;;;10.27;64.73;99094.16;4445232;32;33421;-81
2024/01/01 04:12:59;;;;;;;0.98;0.98;;;;;;;9.70;65.44;99081.28;4445058;32;32805;-81
2024/01/01 04:15:26;;;;;;;9.23;1.60;;;;;;;9.73;65.10;99099.53;4464015;32;33801;-81
2024/01/01 04:17:54;;;;;;;0.57;0.57;;;;;;;9.87;64.49;99089.13;4448189;32;33423;-81
2024/01/01 04:20:22;;;;;;;2.15;1.37;;;;;;;10.04;63.33;99092.69;4458980;32;33983;-81
2024/01/01 04:22:51;;;;;;;0.30;0.30;;;;;;;9.94;63.66;99090.53;4446822;32;33538;-82
2024/01/01 04:25:19;;;;;;;2.37;1.25;;;;;;;9.97;63.25;99085.13;4445126;32;33034;-82
2024/01/01 04:27:47;;;;;;;5.82;3.25;;;;;;;9.54;63.68;99091.72;4446217;32;33911;-82
2024/01/01 04:30:15;;;;;;;1.05;1.05;;;;;;;9.67;63.82;99095.44;4463234;32;34737;-80
2024/01/01 04:32:43;;;;;;;4.95;3.03;;;;;;;9.63;63.46;99085.13;4447434;32;34278;-81
2024/01/01 04:35:12;;;;;;;1.37;1.27;;;;;;;9.41;64.49;99090.66;4432360;32;31690;-81
2024/01/01 04:37:39;;;;;;;0.62;0.62;;;;;;;9.48;63.76;99092.91;4443644;32;33155;-80
2024/01/01 04:40:07;;;;;;;0.77;0.70;;;;;;;8.97;65.55;99105.09;4431858;32;32197;-82
2024/01/01 04:42:35;;;;;;;0.30;0.30;;;;;;;9.12;65.12;99106.12;4447200;32;33662;-81
2024/01/01 04:45:03;;;;;;;0.65;0.57;;;;;;;9.17;64.63;99112.03;4435557;32;32322;-80
2024/01/01 04:47:31;;;;;;;3.40;1.92;;;;;;;9.18;64.37;99115.50;4441251;32;33096;-81
2024/01/01 04:49:59;;;;;;;2.60;2.22;;;;;;;9.17;64.27;99119.94;4428246;32;33379;-80
2024/01/01 04:52:26;;;;;;;1.35;1.35;;;;;;;9.10;64.79;99123.78;4441074;32;33982;-80
2024/01/01 04:54:56;;;;;;;4.55;3.30;;;;;;;9.05;64.70;99135.47;4427584;32;31823;-80
2024/01/01 04:57:23;;;;;;;0.70;0.70;;;;;;;9.06;64.77;99131.87;4453568;32;33886;-80
2024/01/01 04:59:51;;;;;;;2.80;2.15;;;;;;;8.98;64.40;99135.75;4444032;32;32752;-80
2024/01/01 05:02:19;;;;;;;1.20;1.08;;;;;;;8.81;64.68;99132.22;4452634;32;33455;-80
2024/01/01 05:04:46;;;;;;;1.80;1.12;;;;;;;9.19;63.08;99122.47;4441139;32;31896;-80
2024/01/01 05:07:14;;;;;;;4.30;3.30;;;;;;;8.82;64.76;99128.66;4439871;32;35527;-80
2024/01/01 05:09:42;;;;;;;2.60;1.87;;;;;;;8.60;65.35;99136.72;4452605;32;34832;-80
2024/01/01 05:12:13;;;;;;;0.95;0.95;;;;;;;8.91;63.62;99122.94;4453231;32;33930;-80
2024/01/01 05:14:41;;;;;;;21.02;3.12;;;;;;;8.60;64.30;99126.19;4452675;32;32391;-80
2024/01/01 05:17:09;;;;;;;0.50;0.50;;;;;;;9.11;62.18;99108.81;4453181;32;32522;-81
2024/01/01 05:19:37;;;;;;;3.03;2.58;;;;;;;8.74;63.47;99105.34;4440715;32;33363;-81
2024/01/01 05:22:05;;;;;;;1.67;1.58;;;;;;;8.44;64.34;99118.13;4466465;32;33898;-80
2024/01/01 05:24:35;;;;;;;1.37;1.27;;;;;;;8.48;64.45;99126.75;4442140;32;33011;-80
2024/01/01 05:27:03;;;;;;;0.98;0.95;;;;;;;7.82;67.70;99130.47;4439469;32;34265;-80
2024/01/01 05:29:31;;;;;;;0.95;0.95;;;;;;;8.51;65.30;99130.09;4453894;32;34462;-80
2024/01/01 05:31:58;;;;;;;2.15;1.10;;;;;;;8.03;67.32;99127.88;4440857;32;33379;-80
2024/01/01 05:34:27;;;;;;;1.70;1.55;;;;;;;8.64;64.87;99115.44;4428015;32;31833;-79
2024/01/01 05:36:54;;;;;;;1.95;1.85;;;;;;;8.14;67.29;99117.72;4439949;32;33190;-79
2024/01/01 05:39:22;;;;;;;1.58;1.48;;;;;;;8.53;65.55;99101.06;4440612;32;33789;-80
2024/01/01 05:41:49;;;;;;;2.83;2.58;;;;;;;8.23;66.25;99103.31;4453003;32;33842;-80
2024/01/01 05:44:17;;;;;;;1.50;1.50;;;;;;;7.89;68.04;99110.06;4427929;32;32357;-79
2024/01/01 05:46:45;;;;;;;2.17;2.08;;;;;;;8.15;67.50;99116.78;4435640;32;33075;-79
2024/01/01 05:49:12;;;;;;;1.87;1.67;;;;;;;8.21;66.86;99111.25;4446282;32;33849;-79
2024/01/01 05:51:40;;;;;;;1.92;1.60;;;;;;;8.19;66.87;99113.09;4444009;32;34209;-79
2024/01/01 05:54:08;;;;;;;2.50;1.85;;;;;;;8.42;66.56;99104.19;4460806;32;32140;-79
2024/01/01 05:56:35;;;;;;;2.35;2.12;;;;;;;8.19;67.41;99113.09;4447650;32;33256;-80
2024/01/01 05:59:03;;;;;;;2.62;2.50;;;;;;;8.28;67.11;99094.28;4447542;32;32938;-80
2024/01/01 06:01:31;;;;;;;1.75;1.65;;;;;;;8.39;66.59;99102.53;4455887;32;34964;-80
2024/01/01 06:03:59;;;;;;;1.05;1.05;;;;;;;8.18;66.94;99095.63;4450988;32;33090;-80
2024/01/01 06:06:26;;;;;;;0.50;0.50;;;;;;;7.95;68.04;99094.00;4434482;32;33104;-80
2024/01/01 06:08:54;;;;;;;2.40;1.33;;;;;;;8.22;67.55;99089.31;4438552;32;32536;-79
2024/01/01 06:11:21;;;;;;;0.70;0.70;;;;;;;8.18;67.67;99090.34;4461697;32;33806;-80
2024/01/01 06:13:49;;;;;;;2.42;2.05;;;;;;;8.35;66.24;99090.41;4446328;32;33434;-80
2024/01/01 06:16:17;;;;;;;1.23;1.15;;;;;;;8.21;66.72;99083.19;4461671;32;32976;-79
2024/01/01 06:18:45;;;;;;;0.98;0.98;;;;;;;8.22;66.39;99094.56;4447964;32;33244;-80
2024/01/01 06:21:12;;;;;;;1.83;1.58;;;;;;;8.17;67.28;99097.41;4447121;32;34016;-80
2024/01/01 06:23:44;;;;;;;0.10;0.10;;;;;;;7.88;68.04;99103.97;4465289;32;33296;-80
2024/01/01 06:26:13;;;;;;;1.90;1.65;;;;;;;8.06;67.52;99097.00;4452862;32;33280;-80
2024/01/01 06:28:41;;;;;;;2.15;2.05;;;;;;;8.00;67.85;99091.19;4462055;32;33991;-79
2024/01/01 06:31:09;;;;;;;2.17;0.88;;;;;;;7.52;69.19;99080.09;4460048;32;34260;-79
2024/01/01 06:33:37;;;;;;;0.98;0.98;;;;;;;7.33;70.51;99089.69;4436224;32;32734;-80
2024/01/01 06:36:05;;;;;;;1.50;1.45;;;;;;;7.62;69.57;99091.94;4447009;32;33338;-81
2024/01/01 06:38:34;;;;;;;0.93;0.93;;;;;;;7.68;69.27;99101.31;4449527;32;34750;-80
2024/01/01 06:41:02;;;;;;;1.08;0.98;;;;;;;7.82;68.91;99108.59;4455705;32;32458;-80
2024/01/01 06:43:30;;;;;;;2.97;2.75;;;;;;;7.74;68.48;99106.31;4460729;32;33108;-80
2024/01/01 06:45:58;;;;;;;1.70;1.40;;;;;;;7.64;68.77;99105.88;4448567;32;33396;-80
2024/01/01 06:48:26;;;;;;;2.15;2.05;;;;;;;7.59;69.35;99105.19;4449176;32;33962;-80
2024/01/01 06:50:55;;;;;;;0.73;0.68;;;;;;;7.74;68.52;99114.22;4461311;32;33988;-80
2024/01/01 06:53:23;;;;;;;3.00;2.75;;;;;;;7.86;67.65;99115.44;4434399;32;32829;-80
2024/01/01 06:55:51;;;;;;;0.65;0.65;;;;;;;7.54;69.03;99119.44;4449407;32;34069;-79
2024/01/01 06:58:18;;;;;;;4.37;1.55;;;;;;;7.56;69.84;99101.84;4448269;32;33276;-80
2024/01/01 07:00:46;;;;;;;2.75;0.65;;;;;;;7.55;68.55;99108.87;4445693;32;32764;-80
2024/01/01 07:03:14;;;;;;;2.28;1.17;;;;;;;7.71;68.56;99116.97;4436848;32;33622;-80
2024/01/01 07:05:42;;;;;;;3.28;2.97;;;;;;;7.53;69.20;99128.25;4460189;32;34273;-81
2024/01/01 07:08:11;;;;;;;0.20;0.20;;;;;;;7.92;67.24;99131.78;4475117;32;34131;-80
2024/01/01 07:10:39;;;;;;;0.82;0.82;;;;;;;7.50;69.13;99138.88;4407050;32;35452;-80
2024/01/01 07:13:07;;;;;;;2.65;2.05;;;;;;;7.42;69.54;99153.19;4448552;32;33231;-80
2024/01/01 07:15:34;;;;;;;3.17;0.95;;;;;;;7.49;69.58;99171.31;4462632;32;32759;-80
2024/01/01 07:18:02;;;;;;;1.70;1.50;;;;;;;7.83;68.45;99173.38;4447226;32;34724;-79
2024/01/01 07:20:32;;;;;;;1.50;1.40;;;;;;;7.73;68.77;99178.19;4447422;32;33653;-80
2024/01/01 07:23:00;;;;;;;1.40;1.12;;;;;;;7.91;67.83;99185.28;4440441;32;31876;-80
2024/01/01 07:25:28;;;;;;;1.65;1.58;;;;;;;7.84;68.06;99191.75;4445980;32;31823;-80
2024/01/01 07:27:56;;;;;;;0.47;0.47;;;;;;;7.51;68.94;99206.28;4439328;32;32746;-80
2024/01/01 07:30:24;;;;;;;0.57;0.57;;;;;;;7.86;67.69;99203.03;4458037;32;32675;-80
2024/01/01 07:32:53;;;;;;;1.45;1.20;;;;;;;7.85;66.93;99218.88;4435533;32;33257;-79
2024/01/01 07:35:20;;;;;;;2.53;0.95;;;;;;;7.38;68.80;99219.88;4430287;32;33206;-79
2024/01/01 07:37:49;;;;;;;0.95;0.85;;;;;;;7.76;67.76;99219.25;4449100;32;32792;-80
2024/01/01 07:40:17;;;;;;;0.50;0.50;;;;;;;7.32;69.23;99222.78;4431557;32;33961;-79
2024/01/01 07:42:45;;;;;;;0.17;0.17;;;;;;;7.14;69.73;99226.13;4465792;32;33977;-80
2024/01/01 07:45:12;;;;;;;1.87;1.70;;;;;;;7.14;70.43;99226.13;4460758;32;33338;-80
2024/01/01 07:47:40;;;;;;;1.45;1.35;;;;;;;7.03;70.69;99234.41;4458344;32;33550;-80
2024/01/01 07:50:09;;;;;;;0.82;0.75;;;;;;;7.20;70.44;99236.38;4447739;32;33432;-80
2024/01/01 07:52:36;;;;;;;0.52;0.52;;;;;;;7.00;70.59;99252.03;4433967;32;32341;-80
2024/01/01 07:55:06;;;;;;;0.52;0.47;;;;;;;7.27;69.84;99242.25;4461128;32;33369;-80
2024/01/01 07:57:34;;;;;;;0.25;0.25;;;;;;;7.39;69.40;99241.75;4446146;32;33536;-80
2024/01/01 08:00:01;;;;;;;0.90;0.62;;;;;;;7.42;69.53;99241.66;4444457;32;34783;-80
2024/01/01 08:02:33;;;;;;;0.08;0.08;;;;;;;7.09;70.38;99251.69;4459635;32;34188;-81
2024/01/01 08:05:01;;;;;;;2.22;1.62;;;;;;;6.79;72.53;99259.81;4446912;32;33756;-80
2024/01/01 08:07:29;;;;;;;0.75;0.75;;;;;;;7.17;70.47;99247.88;4446917;32;31571;-80
2024/01/01 08:09:57;;;;;;;0.20;0.20;;;;;;;7.33;69.76;99245.47;4454743;32;32659;-80
2024/01/01 08:12:26;;;;;;;0.45;0.37;;;;;;;7.46;69.77;99258.16;4437122;32;32256;-80
2024/01/01 08:14:54;;;;;;;0.82;0.60;;;;;;;7.80;68.06;99250.59;4463114;32;34028;-80
2024/01/01 08:17:22;;;;;;;1.40;1.10;;;;;;;7.69;68.38;99255.41;4448204;32;33717;-81
2024/01/01 08:19:50;;;;;;;0.93;0.20;;;;;;;7.37;69.87;99270.72;4448262;32;32529;-80
2024/01/01 08:22:18;;;;;;;0.85;0.85;;;;;;;7.60;69.04;99261.94;4449685;32;33416;-80
2024/01/01 08:24:45;;;;;;;0.47;0.47;;;;;;;7.37;69.83;99262.84;4460549;32;34437;-80
2024/01/01 08:27:13;;;;;;;0.00;0.00;;;;;;;7.69;68.72;99260.69;4448206;32;33694;-80
2024/01/01 08:29:41;;;;;;;0.20;0.20;;;;;;;7.42;69.39;99267.91;4448651;32;34115;-80
2024/01/01 08:32:09;;;;;;;0.00;0.00;;;;;;;6.96;71.49;99259.16;4445461;32;32861;-80
2024/01/01 08:34:37;;;;;;;0.00;0.00;;;;;;;7.44;70.13;99245.91;4447351;32;30953;-80
2024/01/01 08:37:05;;;;;;;0.00;0.00;;;;;;;7.64;69.19;99246.87;4461232;32;33740;-80
2024/01/01 08:39:33;;;;;;;0.30;0.30;;;;;;;7.48;69.47;99261.56;4447363;32;32281;-79
2024/01/01 08:42:00;;;;;;;0.47;0.47;;;;;;;7.43;69.72;99249.47;4447953;32;32121;-80
2024/01/01 08:44:29;;;;;;;0.00;0.00;;;;;;;7.41;69.11;99253.94;4458538;32;33772;-80
2024/01/01 08:46:56;;;;;;;0.00;0.00;;;;;;;7.63;68.64;99255.69;4431743;32;33099;-81
2024/01/01 08:49:24;;;;;;;0.00;0.00;;;;;;;7.76;68.82;99251.66;4458726;32;32361;-80
2024/01/01 08:51:52;;;;;;;0.00;0.00;;;;;;;7.71;68.58;99258.88;4459917;32;34163;-80
2024/01/01 08:54:20;;;;;;;0.00;0.00;;;;;;;7.43;69.26;99251.22;4459597;32;33702;-79
2024/01/01 08:56:48;;;;;;;0.00;0.00;;;;;;;7.77;69.03;99250.72;4450004;32;32040;-80
2024/01/01 08:59:18;;;;;;;0.00;0.00;;;;;;;7.85;68.40;99256.53;4446706;32;33828;-80
2024/01/01 09:01:46;;;;;;;0.08;0.08;;;;;;;7.92;68.42;99271.09;4447688;32;33253;-80
2024/01/01 09:04:14;;;;;;;1.75;0.43;;;;;;;7.64;69.73;99270.53;4454878;32;32750;-80
2024/01/01 09:06:42;;;;;;;0.00;0.00;;;;;;;7.77;68.95;99263.84;4437432;32;33908;-80
2024/01/01 09:09:11;;;;;;;0.10;0.10;;;;;;;7.67;69.56;99271.25;4459976;32;33834;-80
2024/01/01 09:11:39;;;;;;;0.00;0.00;;;;;;;7.84;68.46;99265.34;4457929;32;33988;-81
2024/01/01 09:14:07;;;;;;;0.00;0.00;;;;;;;7.96;68.35;99269.22;4457858;32;33257;-80
2024/01/01 09:16:36;;;;;;;0.00;0.00;;;;;;;8.01;68.57;99266.41;4457928;32;34430;-80
2024/01/01 09:19:05;;;;;;;0.00;0.00;;;;;;;7.96;68.88;99259.56;4444496;32;32915;-80
2024/01/01 09:21:32;;;;;;;0.00;0.00;;;;;;;8.32;67.37;99248.41;4445848;32;32364;-80
2024/01/01 09:24:03;;;;;;;0.00;0.00;;;;;;;8.23;68.96;99245.31;4458952;32;33975;-80
2024/01/01 09:26:31;;;;;;;0.50;0.50;;;;;;;8.51;67.67;99250.28;4456703;32;33264;-79
2024/01/01 09:28:58;;;;;;;0.00;0.00;;;;;;;7.73;70.43;99256.16;4447036;32;33485;-80
2024/01/01 09:31:27;;;;;;;0.10;0.10;;;;;;;7.96;69.07;99253.44;4459369;32;33329;-80
2024/01/01 09:33:55;;;;;;;0.50;0.50;;;;;;;8.13;69.61;99250.12;4458631;32;32237;-80
2024/01/01 09:36:23;;;;;;;0.10;0.10;;;;;;;8.22;68.85;99244.47;4447758;32;32601;-79
2024/01/01 09:38:50;;;;;;;0.52;0.43;;;;;;;8.47;67.07;99244.28;4458921;32;32884;-80
2024/01/01 09:41:18;;;;;;;0.17;0.17;;;;;;;8.32;68.06;99250.19;4443055;32;32574;-79
2024/01/01 09:43:47;;;;;;;0.00;0.00;;;;;;;8.56;67.71;99250.91;4445336;32;33057;-80
2024/01/01 09:46:17;;;;;;;0.15;0.15;;;;;;;8.85;66.10;99242.56;4446700;32;33610;-79
2024/01/01 09:48:45;;;;;;;2.33;1.60;;;;;;;8.85;66.12;99239.94;4431292;32;34824;-79
2024/01/01 09:51:14;;;;;;;0.00;0.00;;;;;;;8.57;67.17;99250.84;4471262;32;31602;-80
2024/01/01 09:53:45;;;;;;;0.05;0.05;;;;;;;8.66;66.98;99245.16;4457368;32;33844;-80
2024/01/01 09:56:15;;;;;;;0.10;0.10;;;;;;;8.68;66.54;99247.72;4433705;32;33917;-80
2024/01/01 09:58:42;;;;;;;0.00;0.00;;;;;;;9.26;64.91;99254.72;4446877;32;33895;-80
2024/01/01 10:01:12;;;;;;;0.00;0.00;;;;;;;9.21;64.86;99262.88;4444544;32;34606;-80
2024/01/01 10:03:40;;;;;;;0.00;0.00;;;;;;;8.94;64.93;99268.47;4466512;32;32602;-80
2024/01/01 10:06:10;;;;;;;0.73;0.73;;;;;;;9.15;64.10;99271.03;4445035;32;32906;-80
2024/01/01 10:08:38;;;;;;;0.10;0.10;;;;;;;9.09;64.86;99274.81;4459698;32;33291;-80
2024/01/01 10:11:19;;;;;;;0.10;0.10;;;;;;;9.35;64.11;99273.62;4446206;32;33298;-80
2024/01/01 10:13:47;;;;;;;0.10;0.10;;;;;;;9.85;62.80;99274.75;4458138;32;33377;-80
2024/01/01 10:16:27;;;;;;;0.00;0.00;;;;;;;10.03;61.83;99273.84;4448715;32;33895;-80
2024/01/01 10:18:56;;;;;;;0.03;0.03;;;;;;;10.42;60.72;99260.44;4455705;32;33776;-80
2024/01/01 10:21:34;;;;;;;0.00;0.00;;;;;;;10.42;60.91;99254.31;4436708;32;32681;-80
2024/01/01 10:24:21;;;;;;;0.10;0.10;;;;;;;10.24;60.89;99243.75;4463722;32;31657;-80
2024/01/01 10:27:01;;;;;;;0.00;0.00;;;;;;;10.49;60.11;99255.69;4458375;32;33748;-80
2024/01/01 10:29:33;;;;;;;2.42;1.35;;;;;;;10.43;60.21;99254.22;4449581;32;32438;-80
2024/01/01 10:32:01;;;;;;;;;;;;;;;10.16;60.91;99252.94;4446917;32;31619;-80
2024/01/01 10:34:29;;;;;;;1.02;0.93;;;;;;;10.38;60.61;99253.59;4459367;32;35614;-80
2024/01/01 10:36:57;;;;;;;0.00;0.00;;;;;;;10.35;61.62;99256.41;4451701;32;34020;-80
2024/01/01 10:39:26;;;;;;;0.43;0.32;;;;;;;10.56;60.48;99256.22;4445086;32;35410;-80
2024/01/01 10:41:54;;;;;;;0.00;0.00;;;;;;;10.29;60.70;99248.78;4440236;32;31797;-80
2024/01/01 10:44:22;;;;;;;0.08;0.08;;;;;;;10.71;59.11;99239.56;4447066;32;33547;-80
2024/01/01 10:46:56;;;;;;;0.28;0.28;;;;;;;10.06;60.89;99241.16;4459616;32;32930;-80
2024/01/01 10:49:29;;;;;;;0.03;0.03;;;;;;;9.84;61.53;99244.88;4458745;32;33590;-80
2024/01/01 10:52:27;;;;;;;0.85;0.17;;;;;;;10.18;60.68;99235.28;4448369;32;32141;-80
2024/01/01 10:55:18;;;;;;;0.00;0.00;;;;;;;10.51;59.81;99228.28;4447135;32;33606;-81
2024/01/01 10:58:04;;;;;;;0.30;0.30;;;;;;;10.46;59.32;99235.59;4448162;32;34909;-80
2024/01/01 11:00:37;;;;;;;0.00;0.00;;;;;;;10.41;59.58;99245.53;4458228;32;33890;-80
2024/01/01 11:03:06;;;;;;;4.47;0.70;;;;;;;10.83;58.74;99251.28;4446291;32;32807;-80
2024/01/01 11:05:34;;;;;;;0.35;0.35;;;;;;;10.78;58.90;99246.25;4450425;32;33690;-80
2024/01/01 11:08:03;;;;;;;0.30;0.30;;;;;;;10.60;58.23;99250.72;4448814;32;32370;-80
2024/01/01 11:10:42;;;;;;;0.80;0.70;;;;;;;10.71;58.75;99240.44;4435719;32;34716;-80
2024/01/01 11:13:32;;;;;;;0.00;0.00;;;;;;;10.37;59.39;99246.63;4461173;32;31190;-81
2024/01/01 11:16:03;;;;;;;0.10;0.10;;;;;;;10.61;59.33;99247.13;4459059;32;32969;-80
2024/01/01 11:18:33;;;;;;;0.10;0.10;;;;;;;10.86;57.77;99240.53;4444855;32;32588;-80
2024/01/01 11:21:07;;;;;;;0.43;0.43;;;;;;;10.46;59.11;99246.16;4438080;32;32780;-80
2024/01/01 11:23:42;;;;;;;0.10;0.10;;;;;;;10.51;59.11;99259.97;4459638;32;31670;-80
2024/01/01 11:26:22;;;;;;;3.55;1.25;;;;;;;10.65;58.93;99253.13;4462912;32;34222;-80
2024/01/01 11:28:55;;;;;;;0.00;0.00;;;;;;;10.73;58.45;99243.84;4459959;32;32110;-80
2024/01/01 11:31:25;;;;;;;0.00;0.00;;;;;;;10.81;58.04;99255.78;4444570;32;33177;-80
2024/01/01 11:34:07;;;;;;;1.10;0.98;;;;;;;10.56;59.28;99261.50;4437469;32;31749;-80
2024/01/01 11:36:48;;;;;;;0.00;0.00;;;;;;;10.21;60.13;99266.78;4436457;32;34127;-80
2024/01/01 11:39:16;;;;;;;0.00;0.00;;;;;;;10.30;60.03;99257.56;4436945;32;31247;-80
2024/01/01 11:41:44;;;;;;;1.35;0.40;;;;;;;10.21;59.75;99261.53;4446280;32;33896;-81
2024/01/01 11:44:14;;;;;;;1.62;0.93;;;;;;;10.38;59.02;99258.88;4445852;32;33303;-81
2024/01/01 11:46:43;;;;;;;2.05;0.62;;;;;;;10.44;59.46;99269.16;4448284;32;34142;-80